KOSU/OSU METAR and TAF weather

Enter ICAO airport designator
Station Type Date Time Source
KOSU METAR 2019/08/22 06:53 UTC NOAA

KOSU 220653Z AUTO 31006KT 10SM CLR 22/19 A2996 RMK AO2 SLP136 T02170194


Station Type Date Time Source
KOSU Decoded METAR 2019/08/22 06:53 UTC NOAA

Station name not available
Aug 22, 2019 - 02:53 AM EDT / 2019.08.22 0653 UTC
Wind: from the NW (310 degrees) at 7 MPH (6 KT):0
Visibility: 10 mile(s):0
Sky conditions: clear
Temperature: 71.1 F (21.7 C)
Dew Point: 66.9 F (19.4 C)
Relative Humidity: 86%
Pressure (altimeter): 29.96 in. Hg (1014 hPa)
ob: KOSU 220653Z AUTO 31006KT 10SM CLR 22/19 A2996 RMK AO2 SLP136 T02170194
cycle: 7

Station Type Date Time Source
KOSU TAF UTC NOAA

Error!

Example: see airport list